Time;durP1;ratioP1;P1;durP2;ratioP2;P2;SDS_P1;SDS_P2;PMS_P1;PMS_P2;Temp;Humidity;BMP_temperature;BMP_pressure;BME280_temperature;BME280_humidity;BME280_pressure;Samples;Min_cycle;Max_cycle;Signal;HPM_P1;HPM_P2
2023/11/14 00:00:30;;;;;;;16.33;1.33;;;;;;;7.06;59.69;99237.78;5003464;28;20047;-68
2023/11/14 00:02:58;;;;;;;19.85;2.60;;;;;;;6.87;60.37;99228.34;4999953;28;20578;-65
2023/11/14 00:05:27;;;;;;;12.15;1.00;;;;;;;7.03;59.63;99241.38;4995757;28;20122;-67
2023/11/14 00:07:54;;;;;;;21.75;1.83;;;;;;;6.65;60.56;99228.56;4998868;28;20084;-69
2023/11/14 00:10:20;;;;;;;16.35;1.92;;;;;;;6.46;60.38;99240.78;4989649;28;20064;-70
2023/11/14 00:12:46;;;;;;;13.15;2.88;;;;;;;6.72;59.95;99226.50;5001300;28;20032;-67
2023/11/14 00:15:12;;;;;;;14.80;2.47;;;;;;;6.87;59.21;99222.31;5003000;28;20045;-67
2023/11/14 00:17:39;;;;;;;8.50;1.20;;;;;;;6.91;59.90;99244.63;5006427;28;20248;-77
2023/11/14 00:20:05;;;;;;;17.60;1.70;;;;;;;6.87;60.32;99225.75;4994664;28;20120;-75
2023/11/14 00:22:31;;;;;;;18.73;2.42;;;;;;;6.49;60.90;99225.91;4999948;28;20091;-77
2023/11/14 00:24:57;;;;;;;16.13;1.10;;;;;;;7.05;60.29;99228.31;5019537;28;20464;-79
2023/11/14 00:27:22;;;;;;;13.88;1.70;;;;;;;7.33;59.78;99223.38;5013247;28;20395;-79
2023/11/14 00:29:48;;;;;;;18.80;1.63;;;;;;;7.12;60.47;99219.28;5012734;28;20033;-79
2023/11/14 00:32:13;;;;;;;14.73;2.03;;;;;;;6.81;61.57;99215.66;5020672;28;20041;-79
2023/11/14 00:34:40;;;;;;;16.27;2.05;;;;;;;6.79;61.85;99217.47;5013731;28;20245;-79
2023/11/14 00:37:05;;;;;;;22.63;3.15;;;;;;;7.26;60.73;99242.78;5003700;28;20054;-80
2023/11/14 00:39:31;;;;;;;16.15;1.70;;;;;;;6.78;62.14;99236.59;5014617;28;20045;-79
2023/11/14 00:41:56;;;;;;;20.50;1.80;;;;;;;6.90;61.61;99228.16;5013301;28;20034;-79
2023/11/14 00:44:27;;;;;;;20.42;2.22;;;;;;;7.01;61.33;99219.00;4986149;28;20033;-69
2023/11/14 00:46:53;;;;;;;11.25;1.70;;;;;;;6.95;61.68;99221.91;4999728;28;20500;-68
2023/11/14 00:49:18;;;;;;;16.20;1.23;;;;;;;6.72;62.19;99221.31;5000893;28;20054;-69
2023/11/14 00:51:45;;;;;;;15.82;1.42;;;;;;;6.79;61.79;99230.47;5002636;28;20041;-70
2023/11/14 00:54:11;;;;;;;16.70;2.08;;;;;;;6.34;62.91;99231.00;5000430;28;20045;-69
2023/11/14 00:56:38;;;;;;;13.82;1.88;;;;;;;6.46;63.00;99239.03;5001806;28;20033;-68
2023/11/14 00:59:06;;;;;;;20.23;2.10;;;;;;;6.84;61.63;99225.91;4997276;28;20083;-69
2023/11/14 01:01:33;;;;;;;11.65;1.30;;;;;;;6.63;61.90;99232.16;5005329;28;20044;-68
2023/11/14 01:03:59;;;;;;;19.48;1.88;;;;;;;6.77;61.24;99236.66;4988983;28;20038;-68
2023/11/14 01:06:25;;;;;;;16.70;1.45;;;;;;;6.54;62.48;99222.25;4997548;28;20041;-68
2023/11/14 01:08:50;;;;;;;8.55;1.38;;;;;;;6.76;61.90;99229.81;4983913;28;20045;-68
2023/11/14 01:11:16;;;;;;;16.75;1.90;;;;;;;6.46;62.66;99204.44;4992465;28;20033;-69
2023/11/14 01:13:42;;;;;;;15.05;2.72;;;;;;;6.63;62.58;99232.16;4998759;28;20122;-69
2023/11/14 01:16:12;;;;;;;13.07;2.25;;;;;;;6.75;61.59;99209.94;5006932;28;20171;-67
2023/11/14 01:18:38;;;;;;;17.13;2.05;;;;;;;6.71;62.19;99224.84;4997901;28;20420;-69
2023/11/14 01:21:04;;;;;;;14.38;1.65;;;;;;;6.53;62.59;99236.97;5000703;28;20037;-69
2023/11/14 01:23:29;;;;;;;14.68;1.58;;;;;;;6.49;63.39;99246.66;4989062;28;20041;-68
2023/11/14 01:25:54;;;;;;;13.13;1.63;;;;;;;6.87;62.40;99236.13;5000634;28;20041;-69
2023/11/14 01:28:20;;;;;;;18.45;1.33;;;;;;;6.61;62.39;99229.63;5002263;28;20348;-71
2023/11/14 01:30:46;;;;;;;14.35;1.77;;;;;;;6.53;62.41;99252.56;4996900;28;20405;-71
2023/11/14 01:33:11;;;;;;;19.45;2.22;;;;;;;6.78;61.98;99239.19;4997670;28;20042;-71
2023/11/14 01:35:37;;;;;;;14.95;2.28;;;;;;;6.76;62.13;99238.44;5001019;28;20293;-71
2023/11/14 01:38:04;;;;;;;18.73;2.35;;;;;;;6.94;61.85;99235.81;5002203;28;20088;-72
2023/11/14 01:40:30;;;;;;;14.27;2.55;;;;;;;7.22;60.84;99230.88;4983531;28;20557;-72
2023/11/14 01:43:02;;;;;;;19.00;2.22;;;;;;;7.02;61.09;99224.13;5000008;28;20041;-72
2023/11/14 01:45:28;;;;;;;18.83;2.92;;;;;;;7.54;59.52;99225.75;5004451;28;20120;-71
2023/11/14 01:47:55;;;;;;;15.63;2.28;;;;;;;6.57;61.49;99228.09;5001860;28;20132;-70
2023/11/14 01:50:22;;;;;;;13.60;2.70;;;;;;;6.96;60.47;99224.44;4998324;28;20033;-68
2023/11/14 01:52:48;;;;;;;18.00;1.80;;;;;;;6.77;60.44;99232.31;5006277;28;20045;-69
2023/11/14 01:55:18;;;;;;;13.15;1.92;;;;;;;7.13;59.35;99231.34;5002521;28;20041;-71
2023/11/14 01:57:45;;;;;;;13.15;2.08;;;;;;;7.10;59.39;99232.34;4998340;28;20815;-70
2023/11/14 02:00:11;;;;;;;16.85;2.78;;;;;;;6.84;60.31;99214.66;5005655;28;20046;-70
2023/11/14 02:02:40;;;;;;;21.85;2.20;;;;;;;7.37;58.95;99202.41;5000743;28;20512;-70
2023/11/14 02:05:07;;;;;;;15.48;1.80;;;;;;;6.99;59.23;99219.06;5000753;28;20129;-70
2023/11/14 02:07:33;;;;;;;18.48;2.15;;;;;;;6.82;59.88;99196.56;5003046;28;20044;-71
2023/11/14 02:09:59;;;;;;;14.48;1.58;;;;;;;7.02;58.76;99207.69;4997776;28;20064;-69
2023/11/14 02:12:27;;;;;;;13.55;1.85;;;;;;;7.09;58.35;99206.47;4997760;28;20090;-66
2023/11/14 02:14:56;;;;;;;15.52;1.55;;;;;;;6.76;59.94;99225.44;4999507;28;20037;-70
2023/11/14 02:17:21;;;;;;;14.50;1.50;;;;;;;7.49;59.09;99219.97;4996344;28;20111;-70
2023/11/14 02:19:47;;;;;;;13.50;1.65;;;;;;;7.00;60.39;99214.69;4997297;28;21497;-68
2023/11/14 02:22:13;;;;;;;11.80;1.25;;;;;;;6.55;61.23;99224.78;5000193;28;20408;-71
2023/11/14 02:24:48;;;;;;;24.85;1.98;;;;;;;6.72;61.98;99210.94;5002930;28;20080;-70
2023/11/14 02:27:13;;;;;;;12.43;1.25;;;;;;;6.61;62.27;99213.22;4987903;28;20037;-66
2023/11/14 02:29:41;;;;;;;13.85;3.20;;;;;;;6.98;60.81;99217.41;4999859;28;20646;-66
2023/11/14 02:32:06;;;;;;;25.50;2.97;;;;;;;6.99;61.24;99219.06;5002663;28;20122;-66
2023/11/14 02:34:32;;;;;;;22.65;2.42;;;;;;;6.77;62.22;99201.13;5007537;28;20603;-67
2023/11/14 02:36:57;;;;;;;18.58;1.27;;;;;;;6.57;62.05;99198.72;5005830;28;20029;-67
2023/11/14 02:39:23;;;;;;;21.85;2.05;;;;;;;6.86;61.24;99218.88;5000615;28;20042;-67
2023/11/14 02:41:48;;;;;;;17.98;2.35;;;;;;;6.93;60.57;99202.97;4992307;28;21414;-72
2023/11/14 02:44:14;;;;;;;11.70;2.58;;;;;;;6.59;61.41;99221.09;5007546;28;20041;-71
2023/11/14 02:46:39;;;;;;;19.95;2.78;;;;;;;6.87;61.27;99225.75;4999749;28;20034;-71
2023/11/14 02:49:31;;;;;;;17.35;2.90;;;;;;;7.40;59.54;99239.47;5005067;28;20934;-72
2023/11/14 02:52:01;;;;;;;16.02;2.47;;;;;;;7.03;60.45;99248.34;5006284;28;20029;-73
2023/11/14 02:54:26;;;;;;;11.27;2.17;;;;;;;7.27;59.53;99231.47;4983080;28;20045;-73
2023/11/14 02:56:52;;;;;;;23.40;2.45;;;;;;;7.37;59.38;99229.22;4986796;28;20036;-73
2023/11/14 02:59:18;;;;;;;12.43;2.30;;;;;;;7.59;59.01;99254.94;5002929;28;20033;-73
2023/11/14 03:01:43;;;;;;;12.90;1.40;;;;;;;7.17;60.60;99232.88;5003300;28;20512;-73
2023/11/14 03:04:09;;;;;;;19.92;2.28;;;;;;;7.27;61.09;99236.69;5004512;28;20029;-71
2023/11/14 03:06:39;;;;;;;13.23;1.90;;;;;;;6.38;64.00;99235.13;5001977;28;20497;-67
2023/11/14 03:09:05;;;;;;;12.93;1.50;;;;;;;6.87;63.12;99250.88;5005675;28;20053;-71
2023/11/14 03:11:30;;;;;;;18.27;3.13;;;;;;;6.68;63.78;99258.72;5008376;28;20029;-71
2023/11/14 03:13:56;;;;;;;28.10;2.95;;;;;;;6.57;63.83;99237.66;5018170;28;20049;-73
2023/11/14 03:16:22;;;;;;;20.88;3.63;;;;;;;6.41;64.65;99258.31;5003468;28;20521;-74
2023/11/14 03:18:47;;;;;;;34.03;2.50;;;;;;;7.03;63.10;99271.72;5006736;28;20043;-71
2023/11/14 03:21:15;;;;;;;23.35;3.13;;;;;;;6.80;64.54;99263.31;5000954;28;21062;-71
2023/11/14 03:23:42;;;;;;;10.73;3.33;;;;;;;6.84;64.57;99262.25;4982270;28;20037;-71
2023/11/14 03:26:08;;;;;;;17.35;1.48;;;;;;;6.96;64.20;99270.34;5008758;28;20393;-76
2023/11/14 03:28:36;;;;;;;25.20;2.30;;;;;;;6.29;65.46;99285.72;4987333;28;20051;-74
2023/11/14 03:31:05;;;;;;;18.00;1.38;;;;;;;6.21;65.58;99262.69;5009509;28;20037;-76
2023/11/14 03:33:31;;;;;;;26.25;3.20;;;;;;;6.59;65.05;99278.19;5007933;28;20272;-75
2023/11/14 03:35:57;;;;;;;17.10;1.65;;;;;;;6.60;64.87;99279.06;5007538;28;20030;-69
2023/11/14 03:38:23;;;;;;;17.75;1.73;;;;;;;6.73;64.20;99287.94;5000179;28;20041;-71
2023/11/14 03:40:48;;;;;;;19.45;2.78;;;;;;;6.27;64.95;99292.69;5001343;28;20055;-72
2023/11/14 03:43:19;;;;;;;13.20;1.60;;;;;;;6.44;65.20;99286.72;4991853;28;21042;-70
2023/11/14 03:45:44;;;;;;;20.65;2.90;;;;;;;6.66;64.97;99299.50;5000649;28;20022;-71
2023/11/14 03:48:10;;;;;;;11.25;1.92;;;;;;;6.26;65.79;99280.63;4998750;28;20068;-69
2023/11/14 03:50:35;;;;;;;12.88;2.08;;;;;;;6.57;65.29;99290.41;4987576;28;20199;-70
2023/11/14 03:53:00;;;;;;;15.15;1.58;;;;;;;6.23;66.42;99317.09;4991139;28;20961;-70
2023/11/14 03:55:26;;;;;;;23.95;2.78;;;;;;;6.68;65.22;99310.66;4999936;28;20456;-70
2023/11/14 03:57:53;;;;;;;22.73;2.35;;;;;;;6.41;65.93;99313.66;4997824;28;20359;-70
2023/11/14 04:00:18;;;;;;;22.25;2.17;;;;;;;6.85;64.84;99315.88;5001342;28;20109;-70
2023/11/14 04:02:44;;;;;;;18.33;2.20;;;;;;;6.09;67.32;99310.81;4999242;28;20037;-70
2023/11/14 04:05:09;;;;;;;20.17;2.92;;;;;;;6.56;65.64;99311.25;5001574;28;20040;-69
2023/11/14 04:07:37;;;;;;;14.43;1.77;;;;;;;6.91;65.17;99312.16;4995779;28;20037;-66
2023/11/14 04:10:03;;;;;;;26.15;2.10;;;;;;;7.08;64.15;99329.47;4998296;28;20482;-70
2023/11/14 04:12:28;;;;;;;17.27;1.90;;;;;;;6.83;65.32;99333.28;4990341;28;20029;-71
2023/11/14 04:14:54;;;;;;;20.98;2.80;;;;;;;6.68;66.14;99341.81;4984425;28;20081;-69
2023/11/14 04:17:19;;;;;;;19.60;3.28;;;;;;;6.53;65.90;99314.00;4990786;28;20038;-75
2023/11/14 04:19:45;;;;;;;20.48;2.22;;;;;;;6.75;65.57;99317.22;5003465;28;20064;-71
2023/11/14 04:22:11;;;;;;;22.83;2.78;;;;;;;6.42;66.61;99338.72;4986766;28;20099;-71
2023/11/14 04:24:37;;;;;;;24.15;2.22;;;;;;;6.61;65.56;99336.06;5006107;28;20038;-75
2023/11/14 04:27:06;;;;;;;22.42;3.00;;;;;;;6.51;65.97;99340.03;4993862;28;20025;-72
2023/11/14 04:29:31;;;;;;;23.23;1.67;;;;;;;6.52;65.70;99369.44;4997938;28;21494;-72
2023/11/14 04:31:57;;;;;;;19.58;2.28;;;;;;;6.74;65.20;99359.69;4999792;28;20061;-72
2023/11/14 04:34:22;;;;;;;17.65;3.05;;;;;;;6.72;65.72;99374.50;4987770;28;20496;-73
2023/11/14 04:36:48;;;;;;;18.10;2.60;;;;;;;6.28;67.16;99383.47;5001423;28;20033;-72
2023/11/14 04:39:13;;;;;;;23.25;2.72;;;;;;;6.55;65.84;99353.69;4986199;28;20038;-76
2023/11/14 04:41:39;;;;;;;23.85;4.47;;;;;;;6.44;66.64;99357.66;4991488;28;20030;-76
2023/11/14 04:44:06;;;;;;;21.40;2.15;;;;;;;6.79;65.90;99377.66;4986799;28;20095;-68
2023/11/14 04:46:33;;;;;;;19.70;2.20;;;;;;;6.77;65.67;99382.91;5005861;28;20037;-65
2023/11/14 04:49:01;;;;;;;22.95;3.55;;;;;;;6.74;65.45;99390.84;5000086;28;20504;-69
2023/11/14 04:51:27;;;;;;;20.88;2.25;;;;;;;6.64;65.74;99384.41;5004737;28;20030;-71
2023/11/14 04:53:53;;;;;;;14.70;3.03;;;;;;;6.69;65.77;99380.69;4997991;28;20042;-74
2023/11/14 04:56:21;;;;;;;24.40;2.45;;;;;;;6.65;65.31;99376.56;5001084;28;20040;-74
2023/11/14 04:58:46;;;;;;;13.48;1.70;;;;;;;6.41;66.19;99373.34;4988117;28;20034;-73
2023/11/14 05:01:15;;;;;;;24.85;3.55;;;;;;;6.84;65.06;99375.66;5007953;28;20809;-77
2023/11/14 05:03:41;;;;;;;16.88;1.90;;;;;;;6.52;64.91;99374.63;4989042;28;20064;-75
2023/11/14 05:06:07;;;;;;;20.40;2.60;;;;;;;6.31;65.84;99361.75;5005181;28;20607;-74
2023/11/14 05:08:32;;;;;;;15.95;1.42;;;;;;;6.50;65.01;99362.53;4990724;28;20092;-73
2023/11/14 05:10:57;;;;;;;12.80;1.48;;;;;;;6.41;65.08;99373.34;4997186;28;20062;-70
2023/11/14 05:13:23;;;;;;;23.98;2.13;;;;;;;6.96;63.58;99369.91;5003212;28;20049;-71
2023/11/14 05:15:48;;;;;;;11.07;1.80;;;;;;;6.52;64.78;99385.00;4999687;28;20034;-75
2023/11/14 05:18:14;;;;;;;26.60;2.45;;;;;;;6.43;65.26;99391.47;4976091;28;20057;-73
2023/11/14 05:20:39;;;;;;;19.42;2.22;;;;;;;6.84;64.13;99376.53;4998897;28;20046;-70
2023/11/14 05:23:06;;;;;;;34.50;3.28;;;;;;;6.87;63.64;99381.56;5002312;28;20038;-70
2023/11/14 05:25:32;;;;;;;20.80;3.72;;;;;;;6.75;64.54;99382.13;5001614;28;20417;-70
2023/11/14 05:27:57;;;;;;;20.40;2.17;;;;;;;6.81;64.60;99371.47;4981546;28;20046;-69
2023/11/14 05:30:23;;;;;;;21.05;3.35;;;;;;;6.89;64.48;99395.31;5002115;28;20144;-69
2023/11/14 05:32:48;;;;;;;25.20;3.78;;;;;;;6.42;66.05;99397.56;4996101;28;20034;-70
2023/11/14 05:35:17;;;;;;;26.35;2.30;;;;;;;6.47;65.53;99399.03;5000792;28;20502;-71
2023/11/14 05:37:44;;;;;;;20.65;3.60;;;;;;;6.62;65.50;99386.22;4993154;28;20129;-70
2023/11/14 05:40:09;;;;;;;13.32;1.55;;;;;;;6.72;65.30;99395.28;5000587;28;20065;-71
2023/11/14 05:42:35;;;;;;;25.90;3.13;;;;;;;6.72;64.74;99408.25;5002303;28;20125;-71
2023/11/14 05:45:01;;;;;;;23.52;2.45;;;;;;;6.81;64.05;99397.44;4995841;28;20052;-71
2023/11/14 05:47:26;;;;;;;14.80;2.30;;;;;;;6.95;64.07;99408.91;5000789;28;20030;-73
2023/11/14 05:49:52;;;;;;;15.80;2.55;;;;;;;6.46;65.63;99402.56;4997937;28;20170;-73
2023/11/14 05:52:17;;;;;;;13.63;2.10;;;;;;;6.61;65.04;99419.16;5005015;28;20049;-72
2023/11/14 05:54:43;;;;;;;22.90;2.42;;;;;;;6.39;65.47;99401.13;5001257;28;20037;-68
2023/11/14 05:57:09;;;;;;;13.45;2.20;;;;;;;6.78;64.57;99412.34;5001152;28;20671;-71
2023/11/14 05:59:35;;;;;;;18.30;3.42;;;;;;;7.23;63.05;99406.66;5008934;28;20096;-69
2023/11/14 06:02:00;;;;;;;19.17;2.90;;;;;;;6.71;64.50;99422.19;5003720;28;20128;-69
2023/11/14 06:04:26;;;;;;;23.48;2.97;;;;;;;6.64;63.92;99407.78;5002315;28;20049;-68
2023/11/14 06:06:51;;;;;;;20.42;2.45;;;;;;;6.99;63.12;99416.50;5003382;28;20627;-67
2023/11/14 06:09:18;;;;;;;15.75;2.10;;;;;;;6.82;64.11;99413.84;5002499;28;20048;-69
2023/11/14 06:11:44;;;;;;;24.95;3.63;;;;;;;6.63;64.75;99422.53;5002235;28;20025;-69
2023/11/14 06:14:09;;;;;;;18.60;3.72;;;;;;;6.67;64.34;99418.88;5006829;28;20530;-68
2023/11/14 06:16:36;;;;;;;19.83;2.92;;;;;;;6.90;63.36;99428.16;5002745;28;20488;-70
2023/11/14 06:19:02;;;;;;;21.15;3.40;;;;;;;6.46;64.72;99428.50;5000007;28;20060;-69
2023/11/14 06:21:28;;;;;;;23.73;3.13;;;;;;;6.55;64.24;99435.03;5004532;28;20069;-70
2023/11/14 06:23:55;;;;;;;24.13;2.25;;;;;;;7.00;63.12;99444.16;4998966;28;20136;-67
2023/11/14 06:26:21;;;;;;;22.45;3.45;;;;;;;6.60;64.42;99440.00;5006649;28;20507;-69
2023/11/14 06:28:49;;;;;;;19.08;2.20;;;;;;;6.86;64.08;99447.44;5000447;28;20037;-69
2023/11/14 06:31:15;;;;;;;14.88;2.70;;;;;;;6.71;64.07;99453.34;5005024;28;20025;-69
2023/11/14 06:33:41;;;;;;;20.17;2.17;;;;;;;6.93;63.70;99460.09;4989280;28;20075;-71
2023/11/14 06:36:07;;;;;;;17.48;2.40;;;;;;;6.90;63.17;99461.09;4993573;28;20034;-68
2023/11/14 06:38:33;;;;;;;18.65;2.55;;;;;;;6.78;63.52;99456.50;4989851;28;20084;-69
2023/11/14 06:40:59;;;;;;;13.68;1.75;;;;;;;6.63;63.62;99465.81;4998979;28;20111;-69
2023/11/14 06:43:24;;;;;;;19.50;4.18;;;;;;;6.91;62.85;99470.59;5001048;28;20076;-70
2023/11/14 06:45:50;;;;;;;21.90;3.20;;;;;;;7.19;62.00;99474.44;4998024;28;20032;-70
2023/11/14 06:48:16;;;;;;;20.05;4.15;;;;;;;6.66;62.78;99476.06;5002789;28;20045;-69
2023/11/14 06:50:42;;;;;;;17.23;3.05;;;;;;;6.98;62.10;99489.31;4986187;28;20102;-75
2023/11/14 06:53:08;;;;;;;25.30;2.55;;;;;;;6.89;63.10;99483.63;5003739;28;20044;-75
2023/11/14 06:55:34;;;;;;;14.05;2.03;;;;;;;6.91;62.60;99492.19;4999976;28;20033;-71
2023/11/14 06:57:59;;;;;;;10.02;2.13;;;;;;;6.60;63.60;99499.72;5001030;28;20032;-73
2023/11/14 07:00:25;;;;;;;21.27;2.60;;;;;;;7.15;62.36;99497.13;4998210;28;20037;-69
2023/11/14 07:02:51;;;;;;;25.42;4.25;;;;;;;6.70;63.59;99508.75;4996626;28;20029;-70
2023/11/14 07:05:18;;;;;;;22.55;2.63;;;;;;;6.91;62.91;99517.34;5001363;28;20159;-70
2023/11/14 07:07:44;;;;;;;24.65;3.53;;;;;;;6.83;62.71;99519.44;4985460;28;20071;-70
2023/11/14 07:10:11;;;;;;;16.83;1.80;;;;;;;6.49;63.61;99506.22;4998570;28;20041;-70
2023/11/14 07:12:38;;;;;;;14.85;2.15;;;;;;;6.73;62.71;99526.81;5002116;28;20034;-70
2023/11/14 07:15:07;;;;;;;18.77;2.15;;;;;;;6.77;62.38;99520.53;5002631;28;20213;-70
2023/11/14 07:17:35;;;;;;;15.52;2.72;;;;;;;6.98;61.39;99531.72;5000760;28;20116;-70
2023/11/14 07:20:05;;;;;;;27.85;4.40;;;;;;;7.06;61.19;99536.53;4999582;28;20518;-73
2023/11/14 07:22:32;;;;;;;9.05;1.33;;;;;;;6.90;61.85;99545.03;5001320;28;20069;-73
2023/11/14 07:24:59;;;;;;;26.55;2.88;;;;;;;7.16;61.12;99537.81;4997365;28;20064;-75
2023/11/14 07:27:25;;;;;;;24.73;3.53;;;;;;;6.93;61.68;99545.81;5007122;28;20042;-70
2023/11/14 07:29:51;;;;;;;22.40;3.25;;;;;;;7.22;61.20;99545.31;4986972;28;20041;-69
2023/11/14 07:32:17;;;;;;;22.98;2.15;;;;;;;6.71;62.69;99552.00;5003996;28;20041;-71
2023/11/14 07:34:43;;;;;;;16.33;1.65;;;;;;;6.44;63.10;99565.28;5001210;28;20053;-69
2023/11/14 07:37:08;;;;;;;20.20;1.58;;;;;;;6.77;62.29;99551.72;4985087;28;20152;-70
2023/11/14 07:39:34;;;;;;;20.85;2.33;;;;;;;6.69;62.50;99564.22;4985340;28;20129;-71
2023/11/14 07:41:59;;;;;;;14.98;1.80;;;;;;;6.67;63.14;99568.63;4997752;28;20049;-69
2023/11/14 07:44:26;;;;;;;23.60;2.80;;;;;;;6.77;63.03;99582.03;5001248;28;20087;-69
2023/11/14 07:46:52;;;;;;;20.73;2.90;;;;;;;6.95;62.61;99580.34;4983726;28;21490;-70
2023/11/14 07:49:18;;;;;;;10.95;1.85;;;;;;;6.64;63.54;99582.59;4999166;28;20041;-71
2023/11/14 07:51:43;;;;;;;23.42;3.20;;;;;;;6.79;62.88;99591.44;5004609;28;20053;-70
2023/11/14 07:54:10;;;;;;;19.73;1.55;;;;;;;6.64;62.84;99573.94;4995930;28;20474;-71
2023/11/14 07:56:40;;;;;;;17.98;1.55;;;;;;;6.97;62.64;99594.97;5009280;28;20033;-71
2023/11/14 07:59:07;;;;;;;25.17;1.90;;;;;;;7.26;61.74;99593.63;4996789;28;20045;-71
2023/11/14 08:01:32;;;;;;;17.60;2.30;;;;;;;6.91;63.06;99601.28;5000918;28;20749;-73
2023/11/14 08:03:58;;;;;;;13.02;2.15;;;;;;;7.10;62.65;99603.88;4996536;28;20105;-71
2023/11/14 08:06:25;;;;;;;18.40;1.75;;;;;;;6.97;62.84;99604.50;5009859;28;20496;-73
2023/11/14 08:08:51;;;;;;;20.95;2.50;;;;;;;6.68;62.90;99606.66;4997135;28;20645;-72
2023/11/14 08:11:19;;;;;;;16.60;2.13;;;;;;;6.68;62.84;99614.44;5009077;28;20480;-72
2023/11/14 08:13:44;;;;;;;14.57;2.45;;;;;;;6.61;63.25;99616.47;5000151;28;20645;-74
2023/11/14 08:16:10;;;;;;;20.50;2.30;;;;;;;6.98;62.26;99627.00;5005840;28;20041;-73
2023/11/14 08:18:36;;;;;;;12.43;1.58;;;;;;;7.13;62.08;99613.28;5004661;28;20130;-73
2023/11/14 08:21:02;;;;;;;17.25;3.05;;;;;;;6.55;64.11;99618.47;4998476;28;20128;-69
2023/11/14 08:23:28;;;;;;;25.52;3.47;;;;;;;7.10;62.76;99621.22;4988515;28;20037;-67
2023/11/14 08:25:55;;;;;;;27.75;2.92;;;;;;;7.10;62.98;99616.03;4996042;28;20060;-66
2023/11/14 08:28:21;;;;;;;19.67;1.80;;;;;;;6.68;63.85;99612.69;5000003;28;20034;-68
2023/11/14 08:30:46;;;;;;;11.48;2.33;;;;;;;7.52;62.10;99620.16;4997929;28;20488;-66
2023/11/14 08:33:12;;;;;;;19.52;3.65;;;;;;;7.74;60.97;99633.88;4996535;28;20128;-68
2023/11/14 08:35:37;;;;;;;31.75;3.85;;;;;;;7.35;61.63;99625.31;4999363;28;20700;-65
2023/11/14 08:38:03;;;;;;;23.77;2.78;;;;;;;7.21;62.79;99633.75;4997357;28;20330;-67
2023/11/14 08:40:29;;;;;;;16.75;1.65;;;;;;;7.14;63.23;99629.75;5000694;28;20026;-66
2023/11/14 08:42:54;;;;;;;10.73;2.17;;;;;;;7.02;63.33;99629.38;4997618;28;20038;-66
2023/11/14 08:45:20;;;;;;;13.90;1.88;;;;;;;6.90;63.98;99645.50;5005403;28;20045;-66
2023/11/14 08:47:46;;;;;;;22.63;2.20;;;;;;;6.87;63.25;99633.50;4998189;28;20099;-65
2023/11/14 08:50:12;;;;;;;18.13;3.05;;;;;;;7.01;63.74;99652.81;4993233;28;20033;-65
2023/11/14 08:52:39;;;;;;;25.70;3.75;;;;;;;6.85;63.57;99650.91;4986384;28;20658;-67
2023/11/14 08:55:06;;;;;;;24.55;2.95;;;;;;;6.84;63.93;99651.84;4998214;28;20116;-67
2023/11/14 08:57:32;;;;;;;24.27;3.42;;;;;;;7.40;63.04;99659.72;4996629;28;20037;-66
2023/11/14 08:59:58;;;;;;;19.65;2.38;;;;;;;7.38;62.95;99664.13;4993138;28;20048;-68
2023/11/14 09:02:26;;;;;;;20.60;2.20;;;;;;;7.07;62.70;99655.16;4983763;28;20064;-68
2023/11/14 09:04:52;;;;;;;14.77;2.55;;;;;;;7.87;61.08;99647.13;4996013;28;20088;-66
2023/11/14 09:07:18;;;;;;;15.02;2.38;;;;;;;7.42;62.92;99652.69;4999039;28;20458;-68
2023/11/14 09:09:44;;;;;;;14.13;1.92;;;;;;;7.60;61.76;99654.50;4997163;28;20464;-68
2023/11/14 09:12:10;;;;;;;16.45;2.00;;;;;;;7.14;62.00;99655.72;4991883;28;20131;-66
2023/11/14 09:14:36;;;;;;;21.92;2.72;;;;;;;7.29;62.00;99657.63;4997844;28;20137;-65
2023/11/14 09:17:03;;;;;;;22.17;1.95;;;;;;;7.32;62.53;99666.13;4993848;28;20045;-68
2023/11/14 09:19:29;;;;;;;10.02;2.15;;;;;;;7.24;62.58;99663.00;4989815;28;20061;-67
2023/11/14 09:21:54;;;;;;;21.60;1.65;;;;;;;7.54;61.95;99667.75;4996524;28;20119;-66
2023/11/14 09:24:20;;;;;;;10.60;2.47;;;;;;;7.31;62.70;99671.38;4998822;28;20087;-67
2023/11/14 09:26:45;;;;;;;15.60;1.88;;;;;;;6.78;64.93;99667.69;4999035;28;20037;-68
2023/11/14 09:29:14;;;;;;;20.25;2.88;;;;;;;6.83;65.35;99678.69;4992061;28;20103;-67
2023/11/14 09:31:40;;;;;;;18.13;1.65;;;;;;;6.97;64.56;99680.69;4998314;28;20129;-66
2023/11/14 09:34:06;;;;;;;22.15;3.92;;;;;;;7.33;63.65;99673.03;4976445;28;20055;-69
2023/11/14 09:36:31;;;;;;;13.90;1.95;;;;;;;7.00;64.78;99666.72;5001500;28;20045;-68
2023/11/14 09:38:57;;;;;;;20.77;2.08;;;;;;;7.36;63.48;99674.63;5005702;28;20092;-68
2023/11/14 09:41:23;;;;;;;18.08;2.75;;;;;;;7.07;63.87;99679.38;5001175;28;20030;-69
2023/11/14 09:43:49;;;;;;;13.13;1.52;;;;;;;6.63;64.37;99676.13;5009465;28;20087;-69
2023/11/14 09:46:17;;;;;;;17.00;2.67;;;;;;;6.91;63.95;99684.41;4994207;28;20025;-69
2023/11/14 09:48:45;;;;;;;16.42;0.93;;;;;;;7.33;62.59;99669.56;4993404;28;20037;-69
2023/11/14 09:51:14;;;;;;;15.00;3.35;;;;;;;6.55;63.81;99641.84;4992464;28;20041;-69
2023/11/14 09:53:43;;;;;;;17.08;1.60;;;;;;;7.63;61.41;99688.13;4996984;28;20033;-67
2023/11/14 09:56:09;;;;;;;23.58;3.67;;;;;;;7.08;62.83;99686.25;4992353;28;20180;-68
2023/11/14 09:58:34;;;;;;;20.77;2.47;;;;;;;7.52;62.01;99695.56;4998304;28;20076;-67
2023/11/14 10:01:02;;;;;;;20.23;2.05;;;;;;;7.15;63.31;99689.41;4991674;28;20499;-68
2023/11/14 10:03:29;;;;;;;27.60;2.90;;;;;;;7.65;62.53;99701.09;4998064;28;20059;-70
2023/11/14 10:05:55;;;;;;;18.48;2.25;;;;;;;7.58;62.49;99710.94;4996055;28;20492;-68
2023/11/14 10:08:21;;;;;;;17.08;1.92;;;;;;;6.98;64.52;99710.13;4995796;28;20100;-68
2023/11/14 10:11:03;;;;;;;15.68;2.25;;;;;;;6.86;64.24;99688.97;4998251;28;20038;-68
2023/11/14 10:13:28;;;;;;;8.52;1.35;;;;;;;6.89;64.45;99686.22;4980639;28;20045;-69
2023/11/14 10:15:54;;;;;;;16.23;1.20;;;;;;;6.99;63.47;99686.66;5004566;28;20101;-68
2023/11/14 10:18:29;;;;;;;11.32;1.48;;;;;;;6.80;63.11;99691.81;4999553;28;20041;-67
2023/11/14 10:20:58;;;;;;;11.18;1.00;;;;;;;6.73;64.09;99707.72;4993730;28;20133;-67
2023/11/14 10:23:33;;;;;;;11.15;2.15;;;;;;;6.50;64.78;99715.56;4994487;28;20041;-69
2023/11/14 10:26:08;;;;;;;18.33;1.88;;;;;;;6.67;65.43;99711.44;4999406;28;20139;-70
2023/11/14 10:28:34;;;;;;;8.02;0.80;;;;;;;6.54;65.40;99718.88;4997417;28;20538;-66
2023/11/14 10:31:00;;;;;;;7.95;1.17;;;;;;;6.87;64.82;99719.22;4990184;28;20744;-65
2023/11/14 10:33:30;;;;;;;22.27;2.33;;;;;;;6.78;64.86;99701.44;5000680;28;20034;-68
2023/11/14 10:36:07;;;;;;;7.88;0.63;;;;;;;6.60;65.84;99710.84;5000180;28;20117;-66
2023/11/14 10:38:33;;;;;;;14.13;1.95;;;;;;;6.94;64.84;99714.59;4990289;28;20045;-67
2023/11/14 10:40:59;;;;;;;19.40;2.42;;;;;;;7.21;63.67;99712.53;4991412;28;20034;-67
2023/11/14 10:43:29;;;;;;;16.05;1.15;;;;;;;7.15;64.17;99706.78;4995405;28;20080;-66
2023/11/14 10:45:55;;;;;;;24.38;2.35;;;;;;;7.49;63.97;99711.31;4999573;28;20038;-68
2023/11/14 10:48:22;;;;;;;10.35;1.80;;;;;;;8.08;61.98;99715.50;4994862;28;20065;-67
2023/11/14 10:50:49;;;;;;;11.75;1.40;;;;;;;8.08;62.14;99715.50;4995976;28;20030;-67
2023/11/14 10:53:15;;;;;;;28.10;1.98;;;;;;;8.40;61.12;99715.69;4997053;28;20116;-67
2023/11/14 10:55:42;;;;;;;20.23;2.63;;;;;;;8.77;60.02;99708.66;4996970;28;20037;-69
2023/11/14 10:58:09;;;;;;;19.48;2.58;;;;;;;8.76;59.51;99706.97;4993434;28;20045;-68
2023/11/14 11:00:37;;;;;;;23.52;3.42;;;;;;;8.76;59.67;99717.38;4995691;28;20030;-66
2023/11/14 11:03:04;;;;;;;23.65;1.55;;;;;;;8.36;60.67;99708.97;4991741;28;20123;-66
2023/11/14 11:05:31;;;;;;;20.13;2.75;;;;;;;8.26;60.58;99710.31;4998072;28;20039;-65
2023/11/14 11:08:02;;;;;;;20.45;2.30;;;;;;;8.39;61.03;99719.22;4991676;28;20026;-65
2023/11/14 11:10:33;;;;;;;13.65;2.38;;;;;;;8.55;60.15;99720.13;4997612;28;20074;-68
2023/11/14 11:13:07;;;;;;;13.60;1.52;;;;;;;8.08;61.23;99710.28;4995524;28;20045;-68
2023/11/14 11:15:42;;;;;;;34.47;3.25;;;;;;;8.34;61.07;99721.22;4994820;28;20515;-67
2023/11/14 11:18:08;;;;;;;12.30;3.25;;;;;;;8.41;61.12;99716.53;4991236;28;20232;-66
2023/11/14 11:20:36;;;;;;;13.82;2.05;;;;;;;8.83;59.93;99720.53;4996452;28;20033;-67
2023/11/14 11:23:10;;;;;;;12.82;2.10;;;;;;;8.36;61.21;99714.16;4994186;28;20041;-69
2023/11/14 11:25:37;;;;;;;17.55;1.80;;;;;;;8.16;61.83;99730.75;4995195;28;20105;-68
2023/11/14 11:28:21;;;;;;;14.02;1.88;;;;;;;8.08;61.71;99718.09;4994062;28;20045;-66
2023/11/14 11:31:04;;;;;;;13.23;2.47;;;;;;;8.88;60.38;99722.00;4995400;28;20353;-67